Terminal Aerodrome Forecast
Issued by NWS Cleveland, OH

Home | Current Version | Previous Version | Graphics & Text | Print | Product List | Glossary Off
Versions: 1 2 3 4 5 6 7 8 9 10 11 12 13 14 15 16 17 18 19 20 21 22 23 24 25

347
FTUS41 KCLE 171433 AAB
TAFCLE
TAF AMD
KCLE 171433Z 1715/1818 16008KT P6SM SCT060 BKN100
     FM171800 20012G20KT P6SM -SHRA VCTS SCT030 BKN050CB
      TEMPO 1718/1722 2SM -TSRA OVC025CB
     FM172200 20010G20KT P6SM VCTS SCT030CB BKN050
     FM180200 22008KT P6SM SCT060 BKN200
     FM181400 24015G25KT P6SM BKN040=

USA.gov is the U.S. government's official web portal to all federal, state and local government web resources and services.